Time,TemperatureF,DewpointF,PressureIn,WindDirection,WindDirectionDegrees,WindSpeedMPH,WindSpeedGustMPH,Humidity,HourlyPrecipIn,Conditions,Clouds,dailyrainin,SoftwareType,DateUTC
2013-05-22 00:00:00,50.9,50.1,29.56,WNW,292,0.0,0.0,97,0.13,,---,0.00,VWS V14.01,2013-05-22 04:00:00,
2013-05-22 00:01:00,50.9,50.1,29.56,WNW,292,0.0,0.0,97,0.13,,---,0.00,VWS V14.01,2013-05-22 04:01:00,
2013-05-22 00:02:00,50.9,50.1,29.56,WNW,292,0.0,0.0,97,0.13,,---,0.00,VWS V14.01,2013-05-22 04:02:00,
2013-05-22 00:03:00,50.9,50.1,29.56,WNW,292,0.0,0.0,97,0.13,,---,0.00,VWS V14.01,2013-05-22 04:03:00,
2013-05-22 00:04:00,50.9,50.1,29.56,WNW,292,0.0,0.0,97,0.13,,---,0.00,VWS V14.01,2013-05-22 04:04:00,
2013-05-22 00:09:00,50.9,50.1,29.53,WNW,292,0.0,0.0,97,0.13,,---,0.00,VWS V14.01,2013-05-22 04:09:00,
2013-05-22 00:10:00,50.9,50.1,29.53,WNW,292,0.0,0.0,97,0.09,,---,0.00,VWS V14.01,2013-05-22 04:10:00,
2013-05-22 00:15:00,50.9,50.1,29.53,WNW,292,0.0,0.0,97,0.05,,---,0.00,VWS V14.01,2013-05-22 04:15:00,
2013-05-22 00:20:00,50.9,50.1,29.53,WNW,292,0.0,0.0,97,0.05,,---,0.00,VWS V14.01,2013-05-22 04:20:00,
2013-05-22 00:25:00,50.7,49.9,29.53,WNW,292,0.0,0.0,97,0.05,,---,0.00,VWS V14.01,2013-05-22 04:25:00,
2013-05-22 00:30:00,50.7,49.9,29.53,WNW,292,0.0,0.0,97,0.05,,---,0.00,VWS V14.01,2013-05-22 04:30:00,
2013-05-22 00:36:00,50.7,50.2,29.53,WNW,292,0.0,0.0,98,0.05,,---,0.00,VWS V14.01,2013-05-22 04:36:00,
2013-05-22 00:41:00,50.7,50.2,29.53,WNW,292,0.0,0.0,98,0.05,,---,0.00,VWS V14.01,2013-05-22 04:41:00,
2013-05-22 00:46:00,50.7,50.2,29.53,WNW,292,0.0,0.0,98,0.05,,---,0.00,VWS V14.01,2013-05-22 04:46:00,
2013-05-22 00:52:00,50.7,50.2,29.53,WNW,292,0.0,0.0,98,0.05,,---,0.00,VWS V14.01,2013-05-22 04:52:00,
2013-05-22 00:57:00,50.7,50.2,29.53,WNW,292,0.0,0.0,98,0.05,,---,0.00,VWS V14.01,2013-05-22 04:57:00,
2013-05-22 01:02:00,50.7,50.2,29.53,WNW,292,0.0,0.0,98,0.00,,---,0.00,VWS V14.01,2013-05-22 05:02:00,
2013-05-22 01:07:00,50.7,50.2,29.53,WNW,292,0.0,0.0,98,0.00,,---,0.00,VWS V14.01,2013-05-22 05:07:00,
2013-05-22 01:12:00,50.7,50.2,29.53,WNW,292,0.0,0.0,98,0.00,,---,0.00,VWS V14.01,2013-05-22 05:12:00,
2013-05-22 01:17:00,50.7,50.2,29.53,WNW,292,0.0,0.0,98,0.00,,---,0.00,VWS V14.01,2013-05-22 05:17:00,
2013-05-22 01:22:00,50.7,50.2,29.53,WNW,292,0.0,0.0,98,0.00,,---,0.00,VWS V14.01,2013-05-22 05:22:00,
2013-05-22 01:27:00,50.7,50.2,29.50,WNW,292,0.0,0.0,98,0.00,,---,0.00,VWS V14.01,2013-05-22 05:27:00,
2013-05-22 01:32:00,50.7,50.2,29.50,WNW,292,0.0,0.0,98,0.00,,---,0.00,VWS V14.01,2013-05-22 05:32:00,
2013-05-22 01:38:00,50.5,50.0,29.50,WNW,292,0.0,0.0,98,0.00,,---,0.00,VWS V14.01,2013-05-22 05:38:00,
2013-05-22 01:43:00,50.5,50.0,29.50,WNW,292,0.0,0.0,98,0.00,,---,0.00,VWS V14.01,2013-05-22 05:43:00,
2013-05-22 01:48:00,50.5,50.0,29.50,WNW,292,0.0,0.0,98,0.00,,---,0.00,VWS V14.01,2013-05-22 05:48:00,
2013-05-22 01:53:00,50.5,50.0,29.50,WNW,292,0.0,0.0,98,0.00,,---,0.00,VWS V14.01,2013-05-22 05:53:00,
2013-05-22 01:58:00,50.5,50.0,29.50,WNW,292,0.0,0.0,98,0.00,,---,0.00,VWS V14.01,2013-05-22 05:58:00,
2013-05-22 02:04:00,50.5,50.0,29.50,WNW,292,0.0,0.0,98,0.00,,---,0.00,VWS V14.01,2013-05-22 06:04:00,
2013-05-22 02:09:00,50.5,50.0,29.50,WNW,292,0.0,0.0,98,0.00,,---,0.00,VWS V14.01,2013-05-22 06:09:00,
2013-05-22 02:14:00,50.5,50.0,29.50,ENE,68,2.0,2.0,98,0.00,,---,0.00,VWS V14.01,2013-05-22 06:14:00,
2013-05-22 02:19:00,50.5,50.0,29.50,ENE,68,0.0,0.0,98,0.00,,---,0.00,VWS V14.01,2013-05-22 06:19:00,
2013-05-22 02:24:00,50.5,50.0,29.50,ENE,68,0.0,0.0,98,0.00,,---,0.00,VWS V14.01,2013-05-22 06:24:00,
2013-05-22 02:29:00,50.5,50.0,29.50,ENE,68,0.0,0.0,98,0.00,,---,0.00,VWS V14.01,2013-05-22 06:29:00,
2013-05-22 02:34:00,50.5,50.0,29.50,WNW,292,0.0,0.0,98,0.00,,---,0.00,VWS V14.01,2013-05-22 06:34:00,
2013-05-22 02:39:00,50.5,50.0,29.50,WNW,292,0.0,0.0,98,0.00,,---,0.00,VWS V14.01,2013-05-22 06:39:00,
2013-05-22 02:44:00,50.5,50.0,29.50,North,0,0.0,0.0,98,0.00,,---,0.00,VWS V14.01,2013-05-22 06:44:00,
2013-05-22 02:49:00,50.5,50.0,29.50,North,0,0.0,0.0,98,0.00,,---,0.00,VWS V14.01,2013-05-22 06:49:00,
2013-05-22 02:55:00,50.5,50.0,29.53,North,0,1.3,1.3,98,0.00,,---,0.00,VWS V14.01,2013-05-22 06:55:00,
2013-05-22 03:01:00,50.5,50.0,29.53,North,0,0.0,0.0,98,0.00,,---,0.00,VWS V14.01,2013-05-22 07:01:00,
2013-05-22 03:06:00,50.5,50.0,29.53,North,0,0.0,0.0,98,0.00,,---,0.00,VWS V14.01,2013-05-22 07:06:00,
2013-05-22 03:12:00,50.4,49.8,29.50,North,0,0.0,0.0,98,0.00,,---,0.00,VWS V14.01,2013-05-22 07:12:00,
2013-05-22 03:17:00,50.4,49.8,29.50,North,0,0.0,0.0,98,0.00,,---,0.00,VWS V14.01,2013-05-22 07:17:00,
2013-05-22 03:22:00,50.4,49.8,29.50,North,0,0.0,0.0,98,0.00,,---,0.00,VWS V14.01,2013-05-22 07:22:00,
2013-05-22 03:27:00,50.4,49.8,29.50,North,0,0.0,0.0,98,0.00,,---,0.00,VWS V14.01,2013-05-22 07:27:00,
2013-05-22 03:32:00,50.4,49.8,29.50,North,0,0.0,0.0,98,0.00,,---,0.00,VWS V14.01,2013-05-22 07:32:00,
2013-05-22 03:37:00,50.4,49.8,29.50,North,0,0.0,0.0,98,0.00,,---,0.00,VWS V14.01,2013-05-22 07:37:00,
2013-05-22 03:42:00,50.4,49.8,29.47,North,0,0.0,0.0,98,0.00,,---,0.00,VWS V14.01,2013-05-22 07:42:00,
2013-05-22 03:48:00,50.5,50.0,29.47,North,0,0.0,0.0,98,0.00,,---,0.00,VWS V14.01,2013-05-22 07:48:00,
2013-05-22 03:53:00,50.4,49.8,29.47,North,0,0.0,0.0,98,0.00,,---,0.00,VWS V14.01,2013-05-22 07:53:00,
2013-05-22 03:59:00,50.4,49.8,29.50,North,0,0.0,0.0,98,0.00,,---,0.00,VWS V14.01,2013-05-22 07:59:00,
2013-05-22 04:04:00,50.4,49.8,29.50,North,0,0.0,0.0,98,0.12,,---,0.12,VWS V14.01,2013-05-22 08:04:00,
2013-05-22 04:09:00,50.4,49.8,29.47,North,0,0.0,0.0,98,0.12,,---,0.12,VWS V14.01,2013-05-22 08:09:00,
2013-05-22 04:15:00,50.4,49.8,29.47,North,0,0.0,0.0,98,0.12,,---,0.12,VWS V14.01,2013-05-22 08:15:00,
2013-05-22 04:20:00,50.4,49.8,29.47,North,0,0.0,0.0,98,0.12,,---,0.12,VWS V14.01,2013-05-22 08:20:00,
2013-05-22 04:25:00,50.4,49.8,29.47,North,0,0.0,0.0,98,0.12,,---,0.12,VWS V14.01,2013-05-22 08:25:00,
2013-05-22 04:30:00,50.4,49.8,29.47,North,0,0.0,0.0,98,0.16,,---,0.16,VWS V14.01,2013-05-22 08:30:00,
2013-05-22 04:35:00,50.4,49.8,29.47,North,0,0.0,0.0,98,0.16,,---,0.16,VWS V14.01,2013-05-22 08:35:00,
2013-05-22 04:41:00,50.4,49.8,29.47,North,0,1.1,1.1,98,0.16,,---,0.16,VWS V14.01,2013-05-22 08:41:00,
2013-05-22 04:46:00,50.4,49.8,29.47,North,0,0.0,0.0,98,0.16,,---,0.16,VWS V14.01,2013-05-22 08:46:00,
2013-05-22 04:52:00,50.4,49.8,29.47,North,0,0.0,0.0,98,0.16,,---,0.16,VWS V14.01,2013-05-22 08:52:00,
2013-05-22 04:57:00,50.4,49.8,29.47,North,0,0.0,0.0,98,0.16,,---,0.16,VWS V14.01,2013-05-22 08:57:00,
2013-05-22 05:02:00,50.4,49.8,29.47,North,0,0.0,0.0,98,0.16,,---,0.16,VWS V14.01,2013-05-22 09:02:00,
2013-05-22 05:07:00,50.4,49.8,29.47,North,0,0.0,0.0,98,0.04,,---,0.16,VWS V14.01,2013-05-22 09:07:00,
2013-05-22 05:13:00,50.4,49.8,29.47,North,0,0.0,0.0,98,0.04,,---,0.16,VWS V14.01,2013-05-22 09:13:00,
2013-05-22 05:18:00,50.4,49.8,29.47,North,0,0.0,0.0,98,0.04,,---,0.16,VWS V14.01,2013-05-22 09:18:00,
2013-05-22 05:23:00,50.4,49.8,29.47,North,0,0.0,0.0,98,0.04,,---,0.16,VWS V14.01,2013-05-22 09:23:00,
2013-05-22 05:28:00,50.4,49.8,29.47,NNW,338,0.0,0.0,98,0.04,,---,0.16,VWS V14.01,2013-05-22 09:28:00,
2013-05-22 05:33:00,50.2,49.6,29.47,NNW,338,0.0,0.0,98,0.00,,---,0.16,VWS V14.01,2013-05-22 09:33:00,
2013-05-22 05:38:00,50.2,49.6,29.47,NNE,22,0.0,0.0,98,0.00,,---,0.16,VWS V14.01,2013-05-22 09:38:00,
2013-05-22 05:43:00,50.4,49.8,29.47,NNE,22,0.0,0.0,98,0.00,,---,0.16,VWS V14.01,2013-05-22 09:43:00,
2013-05-22 05:48:00,50.4,49.8,29.47,ESE,112,0.0,0.0,98,0.05,,---,0.21,VWS V14.01,2013-05-22 09:48:00,
2013-05-22 05:53:00,50.4,49.8,29.47,ESE,112,0.0,0.0,98,0.05,,---,0.21,VWS V14.01,2013-05-22 09:53:00,
2013-05-22 05:58:00,50.4,49.8,29.47,ENE,68,0.0,0.0,98,0.05,,---,0.21,VWS V14.01,2013-05-22 09:58:00,
2013-05-22 06:03:00,50.2,49.6,29.47,ENE,68,0.0,1.6,98,0.05,,---,0.21,VWS V14.01,2013-05-22 10:03:00,
2013-05-22 06:08:00,50.2,49.6,29.47,ENE,68,0.0,0.0,98,0.05,,---,0.21,VWS V14.01,2013-05-22 10:08:00,
2013-05-22 06:14:00,50.2,49.6,29.47,ENE,68,0.0,0.0,98,0.05,,---,0.21,VWS V14.01,2013-05-22 10:14:00,
2013-05-22 06:19:00,50.2,49.6,29.47,ENE,68,0.0,0.0,98,0.05,,---,0.21,VWS V14.01,2013-05-22 10:19:00,
2013-05-22 06:24:00,50.2,49.6,29.47,ENE,68,0.0,0.0,98,0.05,,---,0.21,VWS V14.01,2013-05-22 10:24:00,
2013-05-22 06:29:00,50.4,49.8,29.47,ENE,68,0.0,0.0,98,0.05,,---,0.21,VWS V14.01,2013-05-22 10:29:00,
2013-05-22 06:34:00,50.4,49.8,29.47,ENE,68,0.0,0.0,98,0.05,,---,0.21,VWS V14.01,2013-05-22 10:34:00,
2013-05-22 06:40:00,50.4,49.8,29.47,ENE,68,0.0,0.0,98,0.05,,---,0.21,VWS V14.01,2013-05-22 10:40:00,
2013-05-22 06:45:00,50.4,49.8,29.47,NE,45,0.0,0.0,98,0.05,,---,0.21,VWS V14.01,2013-05-22 10:45:00,
2013-05-22 06:51:00,50.4,49.8,29.47,NE,45,0.0,0.0,98,0.00,,---,0.21,VWS V14.01,2013-05-22 10:51:00,
2013-05-22 06:56:00,50.4,49.8,29.47,NNE,22,0.9,1.3,98,0.00,,---,0.21,VWS V14.01,2013-05-22 10:56:00,
2013-05-22 07:01:00,50.5,50.0,29.47,NNE,22,0.0,0.0,98,0.00,,---,0.21,VWS V14.01,2013-05-22 11:01:00,
2013-05-22 07:06:00,50.5,50.0,29.47,NNE,22,1.6,1.6,98,0.00,,---,0.21,VWS V14.01,2013-05-22 11:06:00,
2013-05-22 07:11:00,50.7,50.2,29.47,NNE,22,0.0,0.0,98,0.00,,---,0.21,VWS V14.01,2013-05-22 11:11:00,
2013-05-22 07:16:00,50.7,50.2,29.47,NNE,22,2.0,2.0,98,0.00,,---,0.21,VWS V14.01,2013-05-22 11:16:00,
2013-05-22 07:21:00,50.7,50.2,29.47,ESE,112,3.4,3.4,98,0.00,,---,0.21,VWS V14.01,2013-05-22 11:21:00,
2013-05-22 07:26:00,50.9,50.4,29.47,ENE,68,0.0,0.0,98,0.00,,---,0.21,VWS V14.01,2013-05-22 11:26:00,
2013-05-22 07:31:00,51.1,50.5,29.47,ENE,68,0.0,0.0,98,0.00,,---,0.21,VWS V14.01,2013-05-22 11:31:00,
2013-05-22 07:38:00,51.1,50.5,29.47,NNE,22,1.6,2.0,98,0.00,,---,0.21,VWS V14.01,2013-05-22 11:38:00,
2013-05-22 07:44:00,51.3,50.7,29.47,NNE,22,0.0,0.0,98,0.00,,---,0.21,VWS V14.01,2013-05-22 11:44:00,
2013-05-22 07:50:00,51.4,50.9,29.47,NNE,22,0.0,0.0,98,0.00,,---,0.21,VWS V14.01,2013-05-22 11:50:00,
2013-05-22 07:55:00,51.4,50.9,29.47,NNE,22,0.0,0.0,98,0.00,,---,0.21,VWS V14.01,2013-05-22 11:55:00,
2013-05-22 08:01:00,51.6,51.1,29.47,NNE,22,0.0,0.0,98,0.00,,---,0.21,VWS V14.01,2013-05-22 12:01:00,
2013-05-22 08:06:00,52.0,51.4,29.47,NNE,22,0.0,0.0,98,0.00,,---,0.21,VWS V14.01,2013-05-22 12:06:00,
2013-05-22 08:11:00,52.0,51.4,29.47,NNE,22,0.0,1.6,98,0.00,,---,0.21,VWS V14.01,2013-05-22 12:11:00,
2013-05-22 08:16:00,52.0,51.4,29.47,NNE,22,0.0,0.0,98,0.00,,---,0.21,VWS V14.01,2013-05-22 12:16:00,
2013-05-22 08:21:00,52.0,51.4,29.47,NNE,22,1.3,1.6,98,0.00,,---,0.21,VWS V14.01,2013-05-22 12:21:00,
2013-05-22 08:26:00,52.0,51.4,29.47,ENE,68,0.0,0.0,98,0.00,,---,0.21,VWS V14.01,2013-05-22 12:26:00,
2013-05-22 08:32:00,52.0,51.4,29.47,ENE,68,0.0,0.0,98,0.00,,---,0.21,VWS V14.01,2013-05-22 12:32:00,
2013-05-22 08:38:00,52.0,51.4,29.47,NE,45,0.0,0.0,98,0.00,,---,0.21,VWS V14.01,2013-05-22 12:38:00,
2013-05-22 08:44:00,52.2,51.6,29.47,NW,315,1.6,1.6,98,0.00,,---,0.21,VWS V14.01,2013-05-22 12:44:00,
2013-05-22 08:49:00,52.2,51.6,29.47,North,0,0.0,0.0,98,0.00,,---,0.21,VWS V14.01,2013-05-22 12:49:00,
2013-05-22 08:54:00,52.3,51.8,29.47,North,0,0.0,0.0,98,0.00,,---,0.21,VWS V14.01,2013-05-22 12:54:00,
2013-05-22 08:59:00,52.5,52.0,29.47,ESE,112,0.0,0.0,98,0.00,,---,0.21,VWS V14.01,2013-05-22 12:59:00,
2013-05-22 09:04:00,52.7,52.2,29.47,NE,45,0.0,0.0,98,0.00,,---,0.21,VWS V14.01,2013-05-22 13:04:00,
2013-05-22 09:09:00,52.9,52.3,29.47,NE,45,0.0,0.0,98,0.00,,---,0.21,VWS V14.01,2013-05-22 13:09:00,
2013-05-22 09:14:00,53.1,52.5,29.47,NE,45,0.0,0.0,98,0.00,,---,0.21,VWS V14.01,2013-05-22 13:14:00,
2013-05-22 09:20:00,53.1,52.2,29.47,NE,45,0.0,0.0,97,0.00,,---,0.21,VWS V14.01,2013-05-22 13:20:00,
2013-05-22 09:25:00,53.2,52.4,29.47,ENE,68,0.0,0.0,97,0.00,,---,0.21,VWS V14.01,2013-05-22 13:25:00,
2013-05-22 09:31:00,53.6,52.8,29.47,ENE,68,0.0,0.0,97,0.00,,---,0.21,VWS V14.01,2013-05-22 13:31:00,
2013-05-22 09:37:00,53.8,53.0,29.47,SE,135,0.0,0.0,97,0.00,,---,0.21,VWS V14.01,2013-05-22 13:37:00,
2013-05-22 09:42:00,54.1,53.3,29.47,South,180,0.0,0.0,97,0.00,,---,0.21,VWS V14.01,2013-05-22 13:42:00,
2013-05-22 09:47:00,54.1,53.0,29.47,ENE,68,0.0,0.0,96,0.00,,---,0.21,VWS V14.01,2013-05-22 13:47:00,
2013-05-22 09:52:00,54.3,53.2,29.47,ENE,68,0.9,1.3,96,0.00,,---,0.21,VWS V14.01,2013-05-22 13:52:00,
2013-05-22 09:57:00,54.5,53.1,29.47,ENE,68,1.1,1.3,95,0.00,,---,0.21,VWS V14.01,2013-05-22 13:57:00,
2013-05-22 10:03:00,54.9,53.5,29.47,NW,315,0.0,1.1,95,0.00,,---,0.21,VWS V14.01,2013-05-22 14:03:00,
2013-05-22 10:08:00,54.9,53.5,29.47,ENE,68,1.3,1.6,95,0.00,,---,0.21,VWS V14.01,2013-05-22 14:08:00,
2013-05-22 10:13:00,55.0,53.3,29.47,NNW,338,1.3,1.6,94,0.00,,---,0.21,VWS V14.01,2013-05-22 14:13:00,
2013-05-22 10:18:00,55.2,53.5,29.47,NE,45,1.1,1.3,94,0.00,,---,0.21,VWS V14.01,2013-05-22 14:18:00,
2013-05-22 10:24:00,55.2,53.5,29.47,NNE,22,0.0,0.0,94,0.00,,---,0.21,VWS V14.01,2013-05-22 14:24:00,
2013-05-22 10:29:00,55.4,53.4,29.47,NNE,22,0.0,0.0,93,0.00,,---,0.21,VWS V14.01,2013-05-22 14:29:00,
2013-05-22 10:34:00,55.4,53.4,29.47,NNE,22,0.0,0.0,93,0.00,,---,0.21,VWS V14.01,2013-05-22 14:34:00,
2013-05-22 10:40:00,55.6,53.6,29.50,SE,135,0.0,1.3,93,0.00,,---,0.21,VWS V14.01,2013-05-22 14:40:00,
2013-05-22 10:46:00,55.9,54.0,29.50,NNE,22,0.0,2.2,93,0.00,,---,0.21,VWS V14.01,2013-05-22 14:46:00,
2013-05-22 10:51:00,56.3,54.3,29.50,SSW,202,0.0,1.1,93,0.00,,---,0.21,VWS V14.01,2013-05-22 14:51:00,
2013-05-22 10:56:00,56.5,54.5,29.47,ENE,68,2.0,2.0,93,0.00,,---,0.21,VWS V14.01,2013-05-22 14:56:00,
2013-05-22 11:02:00,57.0,55.0,29.47,SSE,158,1.3,6.0,93,0.00,,---,0.21,VWS V14.01,2013-05-22 15:02:00,
2013-05-22 11:07:00,57.2,54.9,29.47,ENE,68,2.2,3.1,92,0.00,,---,0.21,VWS V14.01,2013-05-22 15:07:00,
2013-05-22 11:13:00,57.2,54.6,29.47,NE,45,0.0,0.0,91,0.00,,---,0.21,VWS V14.01,2013-05-22 15:13:00,
2013-05-22 11:19:00,57.2,54.3,29.47,ENE,68,0.0,1.6,90,0.00,,---,0.21,VWS V14.01,2013-05-22 15:19:00,
2013-05-22 11:24:00,57.7,54.8,29.47,NE,45,0.0,0.0,90,0.00,,---,0.21,VWS V14.01,2013-05-22 15:24:00,
2013-05-22 11:30:00,57.7,54.2,29.47,NNE,22,2.7,2.7,88,0.00,,---,0.21,VWS V14.01,2013-05-22 15:30:00,
2013-05-22 11:35:00,57.6,53.4,29.47,ENE,68,2.2,2.2,86,0.00,,---,0.21,VWS V14.01,2013-05-22 15:35:00,
2013-05-22 11:40:00,57.4,53.2,29.50,East,90,1.3,1.6,86,0.00,,---,0.21,VWS V14.01,2013-05-22 15:40:00,
2013-05-22 11:45:00,57.2,52.7,29.50,East,90,2.2,2.2,85,0.00,,---,0.21,VWS V14.01,2013-05-22 15:45:00,
2013-05-22 11:51:00,57.4,52.9,29.50,WSW,248,0.0,2.2,85,0.00,,---,0.21,VWS V14.01,2013-05-22 15:51:00,
2013-05-22 11:56:00,57.4,52.6,29.47,NW,315,0.0,0.0,84,0.00,,---,0.21,VWS V14.01,2013-05-22 15:56:00,
2013-05-22 12:01:00,57.7,53.9,29.47,ESE,112,0.0,1.1,87,0.00,,---,0.21,VWS V14.01,2013-05-22 16:01:00,
2013-05-22 12:06:00,58.1,54.6,29.47,NNW,338,1.3,1.6,88,0.00,,---,0.21,VWS V14.01,2013-05-22 16:06:00,
2013-05-22 12:11:00,58.3,54.8,29.50,SW,225,1.3,2.0,88,0.00,,---,0.21,VWS V14.01,2013-05-22 16:11:00,
2013-05-22 12:17:00,58.1,54.6,29.50,North,0,0.9,2.0,88,0.00,,---,0.21,VWS V14.01,2013-05-22 16:17:00,
2013-05-22 12:23:00,58.1,54.3,29.50,NNW,338,1.1,1.1,87,0.00,,---,0.21,VWS V14.01,2013-05-22 16:23:00,
2013-05-22 12:29:00,58.6,55.1,29.50,SW,225,1.6,2.7,88,0.00,,---,0.21,VWS V14.01,2013-05-22 16:29:00,
2013-05-22 12:34:00,59.0,54.5,29.50,NNW,338,0.0,0.0,85,0.00,,---,0.21,VWS V14.01,2013-05-22 16:34:00,
2013-05-22 12:39:00,59.0,53.8,29.50,East,90,0.9,2.0,83,0.00,,---,0.21,VWS V14.01,2013-05-22 16:39:00,
2013-05-22 12:44:00,59.0,53.5,29.50,ENE,68,2.5,2.7,82,0.00,,---,0.21,VWS V14.01,2013-05-22 16:44:00,
2013-05-22 12:49:00,59.0,53.5,29.50,NNE,22,0.0,0.0,82,0.00,,---,0.21,VWS V14.01,2013-05-22 16:49:00,
2013-05-22 12:54:00,59.0,53.2,29.47,ENE,68,2.5,2.5,81,0.00,,---,0.21,VWS V14.01,2013-05-22 16:54:00,
2013-05-22 13:00:00,59.0,53.5,29.47,SW,225,2.0,2.2,82,0.00,,---,0.21,VWS V14.01,2013-05-22 17:00:00,
2013-05-22 13:05:00,58.8,53.3,29.47,ENE,68,0.9,1.3,82,0.00,,---,0.21,VWS V14.01,2013-05-22 17:05:00,
2013-05-22 13:10:00,59.0,53.5,29.47,ENE,68,2.0,2.0,82,0.00,,---,0.21,VWS V14.01,2013-05-22 17:10:00,
2013-05-22 13:16:00,58.8,53.7,29.47,NE,45,1.3,1.3,83,0.00,,---,0.21,VWS V14.01,2013-05-22 17:16:00,
2013-05-22 13:22:00,58.6,52.8,29.47,North,0,1.3,1.3,81,0.00,,---,0.21,VWS V14.01,2013-05-22 17:22:00,
2013-05-22 13:27:00,58.6,53.2,29.47,North,0,0.0,0.0,82,0.00,,---,0.21,VWS V14.01,2013-05-22 17:27:00,
2013-05-22 13:32:00,58.6,53.2,29.47,ENE,68,0.0,1.1,82,0.00,,---,0.21,VWS V14.01,2013-05-22 17:32:00,
2013-05-22 13:37:00,58.6,52.8,29.47,NNW,338,1.3,2.0,81,0.00,,---,0.21,VWS V14.01,2013-05-22 17:37:00,
2013-05-22 13:42:00,58.8,53.3,29.47,NNW,338,0.0,0.0,82,0.00,,---,0.21,VWS V14.01,2013-05-22 17:42:00,
2013-05-22 13:48:00,59.0,53.8,29.47,WSW,248,1.3,2.2,83,0.00,,---,0.21,VWS V14.01,2013-05-22 17:48:00,
2013-05-22 13:53:00,59.4,54.2,29.47,NNE,22,1.6,1.6,83,0.00,,---,0.21,VWS V14.01,2013-05-22 17:53:00,
2013-05-22 13:58:00,59.7,53.9,29.47,WSW,248,0.9,2.2,81,0.00,,---,0.21,VWS V14.01,2013-05-22 17:58:00,
2013-05-22 14:03:00,59.7,53.5,29.47,NNW,338,0.0,0.0,80,0.00,,---,0.21,VWS V14.01,2013-05-22 18:03:00,
2013-05-22 14:08:00,59.7,53.2,29.47,ENE,68,0.0,0.0,79,0.00,,---,0.21,VWS V14.01,2013-05-22 18:08:00,
2013-05-22 14:13:00,59.7,53.2,29.44,NNE,22,2.0,2.0,79,0.00,,---,0.21,VWS V14.01,2013-05-22 18:13:00,
2013-05-22 14:18:00,59.5,53.0,29.44,NE,45,1.3,1.3,79,0.00,,---,0.21,VWS V14.01,2013-05-22 18:18:00,
2013-05-22 14:24:00,59.5,53.0,29.47,ENE,68,1.1,1.1,79,0.00,,---,0.21,VWS V14.01,2013-05-22 18:24:00,
2013-05-22 14:30:00,59.5,53.4,29.47,ENE,68,0.0,0.0,80,0.00,,---,0.21,VWS V14.01,2013-05-22 18:30:00,
2013-05-22 14:35:00,59.5,53.4,29.47,ENE,68,0.0,0.0,80,0.00,,---,0.21,VWS V14.01,2013-05-22 18:35:00,
2013-05-22 14:40:00,59.5,53.4,29.47,ENE,68,2.9,2.9,80,0.00,,---,0.21,VWS V14.01,2013-05-22 18:40:00,
2013-05-22 14:45:00,59.7,53.2,29.47,ENE,68,1.3,2.2,79,0.00,,---,0.21,VWS V14.01,2013-05-22 18:45:00,
2013-05-22 14:50:00,59.7,53.2,29.47,East,90,3.4,3.4,79,0.00,,---,0.21,VWS V14.01,2013-05-22 18:50:00,
2013-05-22 14:56:00,59.7,53.2,29.47,NNE,22,1.1,1.1,79,0.00,,---,0.21,VWS V14.01,2013-05-22 18:56:00,
2013-05-22 15:01:00,59.5,53.0,29.47,NNE,22,0.0,0.0,79,0.00,,---,0.21,VWS V14.01,2013-05-22 19:01:00,
2013-05-22 15:06:00,59.5,53.0,29.47,NNE,22,0.0,0.0,79,0.00,,---,0.21,VWS V14.01,2013-05-22 19:06:00,
2013-05-22 15:12:00,59.7,53.2,29.47,SW,225,0.0,0.0,79,0.00,,---,0.21,VWS V14.01,2013-05-22 19:12:00,
2013-05-22 15:17:00,59.7,52.9,29.47,East,90,0.0,0.0,78,0.00,,---,0.21,VWS V14.01,2013-05-22 19:17:00,
2013-05-22 15:22:00,59.9,53.0,29.47,East,90,0.0,0.0,78,0.00,,---,0.21,VWS V14.01,2013-05-22 19:22:00,
2013-05-22 15:27:00,60.1,53.6,29.47,ESE,112,1.3,2.2,79,0.00,,---,0.21,VWS V14.01,2013-05-22 19:27:00,
2013-05-22 15:32:00,60.4,53.9,29.47,East,90,1.6,2.2,79,0.00,,---,0.21,VWS V14.01,2013-05-22 19:32:00,
2013-05-22 15:37:00,60.4,53.9,29.47,SSW,202,0.0,2.0,79,0.00,,---,0.21,VWS V14.01,2013-05-22 19:37:00,
2013-05-22 15:43:00,60.3,54.1,29.47,East,90,0.0,0.0,80,0.00,,---,0.21,VWS V14.01,2013-05-22 19:43:00,
2013-05-22 15:48:00,60.3,54.1,29.47,NNW,338,0.0,0.0,80,0.00,,---,0.21,VWS V14.01,2013-05-22 19:48:00,
2013-05-22 15:53:00,60.1,53.9,29.47,ENE,68,0.9,1.6,80,0.00,,---,0.21,VWS V14.01,2013-05-22 19:53:00,
2013-05-22 15:58:00,60.1,54.2,29.47,ENE,68,0.0,0.0,81,0.00,,---,0.21,VWS V14.01,2013-05-22 19:58:00,
2013-05-22 16:03:00,59.9,54.1,29.47,NNW,338,0.0,1.3,81,0.00,,---,0.21,VWS V14.01,2013-05-22 20:03:00,
2013-05-22 16:08:00,59.7,53.9,29.47,NW,315,0.0,0.0,81,0.00,,---,0.21,VWS V14.01,2013-05-22 20:08:00,
2013-05-22 16:13:00,59.7,53.5,29.47,NW,315,0.0,0.0,80,0.00,,---,0.21,VWS V14.01,2013-05-22 20:13:00,
2013-05-22 16:18:00,59.7,53.9,29.47,SW,225,0.0,0.9,81,0.00,,---,0.21,VWS V14.01,2013-05-22 20:18:00,
2013-05-22 16:23:00,59.5,53.4,29.47,NNE,22,0.0,0.0,80,0.00,,---,0.21,VWS V14.01,2013-05-22 20:23:00,
2013-05-22 16:28:00,59.4,53.2,29.47,NNE,22,0.0,0.0,80,0.00,,---,0.21,VWS V14.01,2013-05-22 20:28:00,
2013-05-22 16:33:00,59.4,52.9,29.47,NNE,22,0.0,0.0,79,0.00,,---,0.21,VWS V14.01,2013-05-22 20:33:00,
2013-05-22 16:38:00,59.4,53.2,29.47,NNE,22,0.0,0.0,80,0.00,,---,0.21,VWS V14.01,2013-05-22 20:38:00,
2013-05-22 16:43:00,59.2,53.0,29.47,NNW,338,0.0,0.0,80,0.00,,---,0.21,VWS V14.01,2013-05-22 20:43:00,
2013-05-22 16:48:00,59.0,53.2,29.47,NNW,338,0.0,0.0,81,0.00,,---,0.21,VWS V14.01,2013-05-22 20:48:00,
2013-05-22 16:53:00,58.8,53.0,29.47,NNW,338,0.0,0.0,81,0.00,,---,0.21,VWS V14.01,2013-05-22 20:53:00,
2013-05-22 16:58:00,58.6,53.2,29.47,NNE,22,0.0,0.0,82,0.00,,---,0.21,VWS V14.01,2013-05-22 20:58:00,
2013-05-22 17:03:00,58.6,53.2,29.47,NNE,22,0.0,0.0,82,0.00,,---,0.21,VWS V14.01,2013-05-22 21:03:00,
2013-05-22 17:08:00,58.5,53.3,29.47,NNE,22,0.0,0.0,83,0.00,,---,0.21,VWS V14.01,2013-05-22 21:08:00,
2013-05-22 17:13:00,58.5,53.3,29.47,NNE,22,0.0,0.0,83,0.00,,---,0.21,VWS V14.01,2013-05-22 21:13:00,
2013-05-22 17:18:00,58.5,53.3,29.47,NNE,22,0.0,0.0,83,0.00,,---,0.21,VWS V14.01,2013-05-22 21:18:00,
2013-05-22 17:23:00,58.5,53.3,29.47,NNE,22,0.0,0.0,83,0.00,,---,0.21,VWS V14.01,2013-05-22 21:23:00,
2013-05-22 17:28:00,58.6,53.5,29.47,NNE,22,0.0,0.0,83,0.00,,---,0.21,VWS V14.01,2013-05-22 21:28:00,
2013-05-22 17:34:00,58.5,53.3,29.47,NNE,22,0.0,0.0,83,0.00,,---,0.21,VWS V14.01,2013-05-22 21:34:00,
2013-05-22 17:39:00,58.5,53.7,29.47,NNE,22,0.0,0.0,84,0.00,,---,0.21,VWS V14.01,2013-05-22 21:39:00,
2013-05-22 17:44:00,58.5,53.7,29.47,East,90,0.0,1.1,84,0.00,,---,0.21,VWS V14.01,2013-05-22 21:44:00,
2013-05-22 17:49:00,58.3,53.5,29.47,East,90,0.0,0.0,84,0.00,,---,0.21,VWS V14.01,2013-05-22 21:49:00,
2013-05-22 17:54:00,58.3,53.5,29.47,East,90,0.0,0.0,84,0.00,,---,0.21,VWS V14.01,2013-05-22 21:54:00,
2013-05-22 17:59:00,58.1,53.3,29.47,East,90,0.0,0.0,84,0.00,,---,0.21,VWS V14.01,2013-05-22 21:59:00,
2013-05-22 18:04:00,58.1,53.3,29.47,North,0,1.3,1.3,84,0.00,,---,0.21,VWS V14.01,2013-05-22 22:04:00,
2013-05-22 18:09:00,57.9,53.1,29.44,North,0,0.0,0.0,84,0.00,,---,0.21,VWS V14.01,2013-05-22 22:09:00,
2013-05-22 18:15:00,57.9,53.4,29.44,North,0,0.0,0.0,85,0.00,,---,0.21,VWS V14.01,2013-05-22 22:15:00,
2013-05-22 18:20:00,57.7,53.3,29.44,North,0,0.0,0.0,85,0.00,,---,0.21,VWS V14.01,2013-05-22 22:20:00,
2013-05-22 18:25:00,57.6,53.1,29.44,WNW,292,0.0,0.0,85,0.00,,---,0.21,VWS V14.01,2013-05-22 22:25:00,
2013-05-22 18:31:00,57.4,52.9,29.44,NNE,22,0.0,0.0,85,0.00,,---,0.21,VWS V14.01,2013-05-22 22:31:00,
2013-05-22 18:36:00,57.4,53.2,29.44,NNE,22,0.0,0.0,86,0.00,,---,0.21,VWS V14.01,2013-05-22 22:36:00,
2013-05-22 18:42:00,57.2,53.1,29.47,NNE,22,0.0,0.0,86,0.00,,---,0.21,VWS V14.01,2013-05-22 22:42:00,
2013-05-22 18:47:00,57.0,53.2,29.47,NNE,22,0.0,0.0,87,0.00,,---,0.21,VWS V14.01,2013-05-22 22:47:00,
2013-05-22 18:52:00,56.8,53.3,29.47,NNE,22,0.0,0.0,88,0.00,,---,0.21,VWS V14.01,2013-05-22 22:52:00,
2013-05-22 18:57:00,56.8,53.3,29.47,NNE,22,0.0,0.0,88,0.00,,---,0.21,VWS V14.01,2013-05-22 22:57:00,
2013-05-22 19:02:00,56.7,53.2,29.47,NNE,22,0.0,0.0,88,0.00,,---,0.21,VWS V14.01,2013-05-22 23:02:00,
2013-05-22 19:07:00,56.7,53.5,29.47,NNE,22,0.0,0.0,89,0.00,,---,0.21,VWS V14.01,2013-05-22 23:07:00,
2013-05-22 19:13:00,56.5,53.3,29.47,NNE,22,0.0,0.0,89,0.00,,---,0.21,VWS V14.01,2013-05-22 23:13:00,
2013-05-22 19:18:00,56.5,53.6,29.47,NNE,22,0.0,0.0,90,0.00,,---,0.21,VWS V14.01,2013-05-22 23:18:00,
2013-05-22 19:23:00,56.5,53.6,29.47,NNE,22,0.0,0.0,90,0.00,,---,0.21,VWS V14.01,2013-05-22 23:23:00,
2013-05-22 19:29:00,56.3,53.7,29.47,NNE,22,0.0,0.0,91,0.00,,---,0.21,VWS V14.01,2013-05-22 23:29:00,
2013-05-22 19:34:00,56.3,53.7,29.47,NNE,22,0.0,0.0,91,0.00,,---,0.21,VWS V14.01,2013-05-22 23:34:00,
2013-05-22 19:39:00,56.1,53.5,29.47,NNE,22,0.0,0.0,91,0.00,,---,0.21,VWS V14.01,2013-05-22 23:39:00,
2013-05-22 19:44:00,56.1,53.8,29.47,NNE,22,0.0,0.0,92,0.04,,---,0.25,VWS V14.01,2013-05-22 23:44:00,
2013-05-22 19:49:00,55.9,53.7,29.47,NNE,22,0.0,0.0,92,0.04,,---,0.25,VWS V14.01,2013-05-22 23:49:00,
2013-05-22 19:54:00,55.9,53.7,29.47,NNE,22,0.0,0.0,92,0.04,,---,0.25,VWS V14.01,2013-05-22 23:54:00,
2013-05-22 20:00:00,55.9,53.7,29.47,NNE,22,0.0,0.0,92,0.04,,---,0.25,VWS V14.01,2013-05-23 00:00:00,
2013-05-22 20:05:00,55.9,53.7,29.47,NNE,22,0.0,0.0,92,0.04,,---,0.25,VWS V14.01,2013-05-23 00:05:00,
2013-05-22 20:10:00,55.9,54.0,29.47,NNE,22,0.0,0.0,93,0.04,,---,0.25,VWS V14.01,2013-05-23 00:10:00,
2013-05-22 20:16:00,55.8,53.8,29.47,NNE,22,0.0,0.0,93,0.04,,---,0.25,VWS V14.01,2013-05-23 00:16:00,
2013-05-22 20:21:00,55.8,53.8,29.47,NNE,22,0.0,0.0,93,0.04,,---,0.25,VWS V14.01,2013-05-23 00:21:00,
2013-05-22 20:26:00,55.8,53.8,29.47,NNE,22,0.0,0.0,93,0.04,,---,0.25,VWS V14.01,2013-05-23 00:26:00,
2013-05-22 20:31:00,55.8,53.8,29.47,NNE,22,0.0,0.0,93,0.04,,---,0.25,VWS V14.01,2013-05-23 00:31:00,
2013-05-22 20:37:00,55.8,53.8,29.47,NNE,22,0.0,0.0,93,0.04,,---,0.25,VWS V14.01,2013-05-23 00:37:00,
2013-05-22 20:43:00,55.6,53.6,29.47,NNE,22,0.0,0.0,93,0.00,,---,0.25,VWS V14.01,2013-05-23 00:43:00,
2013-05-22 20:48:00,55.6,53.6,29.47,NNE,22,0.0,0.0,93,0.00,,---,0.25,VWS V14.01,2013-05-23 00:48:00,
2013-05-22 20:54:00,55.6,53.9,29.47,NNE,22,0.0,0.0,94,0.00,,---,0.25,VWS V14.01,2013-05-23 00:54:00,
2013-05-22 21:00:00,55.6,53.9,29.47,NNE,22,0.0,0.0,94,0.00,,---,0.25,VWS V14.01,2013-05-23 01:00:00,
2013-05-22 21:05:00,55.4,53.7,29.47,NNE,22,0.0,0.0,94,0.00,,---,0.25,VWS V14.01,2013-05-23 01:05:00,
2013-05-22 21:10:00,55.4,53.7,29.47,NNE,22,0.0,0.0,94,0.00,,---,0.25,VWS V14.01,2013-05-23 01:10:00,
2013-05-22 21:15:00,55.4,53.7,29.47,NNE,22,0.0,0.0,94,0.00,,---,0.25,VWS V14.01,2013-05-23 01:15:00,
2013-05-22 21:20:00,55.4,53.7,29.47,NNE,22,0.0,0.0,94,0.00,,---,0.25,VWS V14.01,2013-05-23 01:20:00,
2013-05-22 21:26:00,55.4,53.7,29.50,NNE,22,0.0,0.0,94,0.00,,---,0.25,VWS V14.01,2013-05-23 01:26:00,
2013-05-22 21:31:00,55.4,53.7,29.50,NNE,22,0.0,0.0,94,0.00,,---,0.25,VWS V14.01,2013-05-23 01:31:00,
2013-05-22 21:36:00,55.4,53.7,29.50,NNE,22,0.0,0.0,94,0.00,,---,0.25,VWS V14.01,2013-05-23 01:36:00,
2013-05-22 21:42:00,55.4,53.7,29.50,SE,135,0.0,0.0,94,0.00,,---,0.25,VWS V14.01,2013-05-23 01:42:00,
2013-05-22 21:47:00,55.4,53.7,29.50,NNE,22,0.0,0.0,94,0.00,,---,0.25,VWS V14.01,2013-05-23 01:47:00,
2013-05-22 21:53:00,55.2,53.8,29.47,NNE,22,0.0,0.0,95,0.00,,---,0.25,VWS V14.01,2013-05-23 01:53:00,
2013-05-22 21:58:00,55.2,53.8,29.47,NNE,22,1.1,1.3,95,0.00,,---,0.25,VWS V14.01,2013-05-23 01:58:00,
2013-05-22 22:03:00,55.2,53.8,29.47,NNE,22,0.0,0.0,95,0.00,,---,0.25,VWS V14.01,2013-05-23 02:03:00,
2013-05-22 22:08:00,55.0,53.6,29.47,East,90,0.0,0.0,95,0.00,,---,0.25,VWS V14.01,2013-05-23 02:08:00,
2013-05-22 22:13:00,55.0,53.6,29.47,ESE,112,0.0,0.0,95,0.00,,---,0.25,VWS V14.01,2013-05-23 02:13:00,
2013-05-22 22:18:00,55.0,53.6,29.47,ESE,112,0.0,0.0,95,0.00,,---,0.25,VWS V14.01,2013-05-23 02:18:00,
2013-05-22 22:23:00,55.0,53.6,29.47,NNE,22,0.0,0.0,95,0.00,,---,0.25,VWS V14.01,2013-05-23 02:23:00,
2013-05-22 22:28:00,54.9,53.5,29.47,NNE,22,0.0,0.0,95,0.00,,---,0.25,VWS V14.01,2013-05-23 02:28:00,
2013-05-22 22:34:00,54.9,53.5,29.47,NNE,22,0.0,0.0,95,0.00,,---,0.25,VWS V14.01,2013-05-23 02:34:00,
2013-05-22 22:39:00,54.9,53.5,29.47,ENE,68,0.0,0.0,95,0.00,,---,0.25,VWS V14.01,2013-05-23 02:39:00,
2013-05-22 22:44:00,54.7,53.3,29.47,ENE,68,0.0,0.0,95,0.00,,---,0.25,VWS V14.01,2013-05-23 02:44:00,
2013-05-22 22:50:00,54.7,53.3,29.47,NE,45,2.0,2.0,95,0.00,,---,0.25,VWS V14.01,2013-05-23 02:50:00,
2013-05-22 22:55:00,54.5,53.1,29.47,ENE,68,2.0,2.0,95,0.00,,---,0.25,VWS V14.01,2013-05-23 02:55:00,
2013-05-22 23:01:00,54.5,53.1,29.47,ENE,68,0.0,0.0,95,0.00,,---,0.25,VWS V14.01,2013-05-23 03:01:00,
2013-05-22 23:06:00,54.5,53.1,29.47,ENE,68,0.0,0.0,95,0.00,,---,0.25,VWS V14.01,2013-05-23 03:06:00,
2013-05-22 23:11:00,54.5,53.1,29.50,ENE,68,0.0,0.0,95,0.00,,---,0.25,VWS V14.01,2013-05-23 03:11:00,
2013-05-22 23:16:00,54.5,53.4,29.50,ENE,68,0.0,0.0,96,0.00,,---,0.25,VWS V14.01,2013-05-23 03:16:00,
2013-05-22 23:22:00,54.3,52.9,29.50,ENE,68,0.0,0.0,95,0.00,,---,0.25,VWS V14.01,2013-05-23 03:22:00,
2013-05-22 23:28:00,54.1,52.7,29.47,ENE,68,0.0,0.0,95,0.00,,---,0.25,VWS V14.01,2013-05-23 03:28:00,
2013-05-22 23:33:00,54.1,52.7,29.47,ENE,68,0.0,0.0,95,0.00,,---,0.25,VWS V14.01,2013-05-23 03:33:00,
2013-05-22 23:38:00,54.1,53.0,29.47,NE,45,0.0,0.0,96,0.00,,---,0.25,VWS V14.01,2013-05-23 03:38:00,
2013-05-22 23:44:00,54.0,52.8,29.47,ENE,68,0.0,2.9,96,0.00,,---,0.25,VWS V14.01,2013-05-23 03:44:00,
2013-05-22 23:49:00,54.0,52.8,29.47,ENE,68,0.0,0.0,96,0.00,,---,0.25,VWS V14.01,2013-05-23 03:49:00,
2013-05-22 23:54:00,54.0,52.8,29.47,NNE,22,1.6,1.6,96,0.00,,---,0.25,VWS V14.01,2013-05-23 03:54:00,
2013-05-22 23:59:00,54.0,52.8,29.47,ENE,68,1.1,1.3,96,0.00,,---,0.25,VWS V14.01,2013-05-23 03:59:00,